createdAt,value
2018-01-30T00:01:24.997Z,6.80
2018-01-30T00:03:51.573Z,6.90
2018-01-30T00:06:18.490Z,7.00
2018-01-30T00:08:45.066Z,7.00
2018-01-30T00:11:11.624Z,7.00
2018-01-30T00:13:38.552Z,7.00
2018-01-30T00:16:05.117Z,7.00
2018-01-30T00:18:31.697Z,7.00
2018-01-30T00:20:58.233Z,7.10
2018-01-30T00:23:25.165Z,7.20
2018-01-30T00:25:51.736Z,7.20
2018-01-30T00:28:18.661Z,7.10
2018-01-30T00:30:45.230Z,7.10
2018-01-30T00:33:12.178Z,7.00
2018-01-30T00:35:38.713Z,7.00
2018-01-30T00:38:05.288Z,7.10
2018-01-30T00:40:32.224Z,7.10
2018-01-30T00:42:58.748Z,7.10
2018-01-30T00:45:25.324Z,7.20
2018-01-30T00:47:52.265Z,7.20
2018-01-30T00:50:18.805Z,7.20
2018-01-30T00:52:45.413Z,7.20
2018-01-30T00:55:11.984Z,7.20
2018-01-30T00:57:38.528Z,7.30
2018-01-30T01:00:05.476Z,7.40
2018-01-30T01:02:32.040Z,7.40
2018-01-30T01:04:58.576Z,7.40
2018-01-30T01:07:25.169Z,7.40
2018-01-30T01:09:52.105Z,7.40
2018-01-30T01:12:18.640Z,7.40
2018-01-30T01:14:45.248Z,7.40
2018-01-30T01:17:11.820Z,7.40
2018-01-30T01:19:38.364Z,7.40
2018-01-30T01:22:04.925Z,7.40
2018-01-30T01:24:31.500Z,7.40
2018-01-30T01:26:58.129Z,7.40
2018-01-30T01:29:24.704Z,7.40
2018-01-30T01:31:51.274Z,7.40
2018-01-30T01:34:17.824Z,7.40
2018-01-30T01:36:44.385Z,7.40
2018-01-30T01:39:10.949Z,7.40
2018-01-30T01:41:37.477Z,7.40
2018-01-30T01:44:04.056Z,7.40
2018-01-30T01:46:30.633Z,7.40
2018-01-30T01:48:57.167Z,7.30
2018-01-30T01:51:23.737Z,7.30
2018-01-30T01:53:50.677Z,7.40
2018-01-30T01:56:17.216Z,7.40
2018-01-30T01:58:43.782Z,7.50
2018-01-30T02:01:10.361Z,7.40
2018-01-30T02:03:36.906Z,7.40
2018-01-30T02:06:03.516Z,7.50
2018-01-30T02:08:30.100Z,7.50
2018-01-30T02:10:56.645Z,7.40
2018-01-30T02:13:23.252Z,7.50
2018-01-30T02:15:49.820Z,7.50
2018-01-30T02:18:16.729Z,7.50
2018-01-30T02:20:43.321Z,7.50
2018-01-30T02:23:10.287Z,7.50
2018-01-30T02:25:37.201Z,7.40
2018-01-30T02:28:03.764Z,7.40
2018-01-30T02:30:30.344Z,7.40
2018-01-30T02:32:57.248Z,7.50
2018-01-30T02:35:23.833Z,7.50
2018-01-30T02:37:50.776Z,7.50
2018-01-30T02:40:17.361Z,7.50
2018-01-30T02:42:43.917Z,7.50
2018-01-30T02:45:10.482Z,7.40
2018-01-30T02:47:37.016Z,7.40
2018-01-30T02:50:03.633Z,7.40
2018-01-30T02:52:30.558Z,7.50
2018-01-30T02:54:57.379Z,7.50
2018-01-30T02:57:23.970Z,7.40
2018-01-30T02:59:50.546Z,7.40
2018-01-30T03:02:17.449Z,7.40
2018-01-30T03:04:44.013Z,7.40
2018-01-30T03:07:10.576Z,7.40
2018-01-30T03:09:37.153Z,7.50
2018-01-30T03:12:03.788Z,7.50
2018-01-30T03:14:30.766Z,7.50
2018-01-30T03:16:57.295Z,7.40
2018-01-30T03:19:23.865Z,7.40
2018-01-30T03:21:50.428Z,7.40
2018-01-30T03:24:16.952Z,7.40
2018-01-30T03:26:43.504Z,7.40
2018-01-30T03:29:10.086Z,7.30
2018-01-30T03:31:36.620Z,7.40
2018-01-30T03:34:03.236Z,7.40
2018-01-30T03:36:29.804Z,7.30
2018-01-30T03:38:56.337Z,7.30
2018-01-30T03:41:22.913Z,7.30
2018-01-30T03:43:49.480Z,7.30
2018-01-30T03:46:16.020Z,7.30
2018-01-30T03:48:42.585Z,7.40
2018-01-30T03:51:09.160Z,7.40
2018-01-30T03:53:35.696Z,7.30
2018-01-30T03:56:02.652Z,7.30
2018-01-30T03:58:29.582Z,7.30
2018-01-30T04:00:56.148Z,7.30
2018-01-30T04:03:22.729Z,7.30
2018-01-30T04:05:49.366Z,7.20
2018-01-30T04:08:23.336Z,7.20
2018-01-30T04:10:49.908Z,7.20
2018-01-30T04:13:16.433Z,7.20
2018-01-30T04:15:43.062Z,7.20
2018-01-30T04:18:09.627Z,7.20
2018-01-30T04:20:36.188Z,7.10
2018-01-30T04:23:02.757Z,7.10
2018-01-30T04:25:29.693Z,7.10
2018-01-30T04:27:56.229Z,7.10
2018-01-30T04:30:22.805Z,7.10
2018-01-30T04:32:49.380Z,7.10
2018-01-30T04:35:15.913Z,7.10
2018-01-30T04:37:42.867Z,7.00
2018-01-30T04:40:09.803Z,7.10
2018-01-30T04:42:36.349Z,7.10
2018-01-30T04:45:02.941Z,7.00
2018-01-30T04:47:29.493Z,7.00
2018-01-30T04:49:56.022Z,6.90
2018-01-30T04:52:22.588Z,6.90
2018-01-30T04:54:49.146Z,6.90
2018-01-30T04:57:15.672Z,6.80
2018-01-30T04:59:42.236Z,6.80
2018-01-30T05:02:08.807Z,6.80
2018-01-30T05:04:35.341Z,6.80
2018-01-30T05:07:01.930Z,6.80
2018-01-30T05:09:28.498Z,6.70
2018-01-30T05:11:55.491Z,6.70
2018-01-30T05:14:22.068Z,6.70
2018-01-30T05:16:48.657Z,6.60
2018-01-30T05:19:15.573Z,6.60
2018-01-30T05:21:42.140Z,6.60
2018-01-30T05:24:08.703Z,6.60
2018-01-30T05:26:35.750Z,6.50
2018-01-30T05:29:02.417Z,6.50
2018-01-30T05:31:28.976Z,6.50
2018-01-30T05:33:55.886Z,6.40
2018-01-30T05:36:22.530Z,6.40
2018-01-30T05:38:49.089Z,6.40
2018-01-30T05:41:16.516Z,6.40
2018-01-30T05:43:43.076Z,6.40
2018-01-30T05:46:09.652Z,6.30
2018-01-30T05:48:37.352Z,6.20
2018-01-30T05:51:04.168Z,6.20
2018-01-30T05:53:30.750Z,6.20
2018-01-30T05:55:58.125Z,6.20
2018-01-30T05:58:24.697Z,6.20
2018-01-30T06:00:51.310Z,6.20
2018-01-30T06:03:18.214Z,6.10
2018-01-30T06:05:44.772Z,6.10
2018-01-30T06:08:11.346Z,6.10
2018-01-30T06:10:38.596Z,6.10
2018-01-30T06:13:05.223Z,6.10
2018-01-30T06:15:32.313Z,6.10
2018-01-30T06:17:59.233Z,6.20
2018-01-30T06:20:26.114Z,6.10
2018-01-30T06:22:52.949Z,6.20
2018-01-30T06:25:19.498Z,6.20
2018-01-30T06:27:47.453Z,6.20
2018-01-30T06:30:14.014Z,6.30
2018-01-30T06:32:40.548Z,6.20
2018-01-30T06:35:07.116Z,6.20
2018-01-30T06:37:33.680Z,6.30
2018-01-30T06:40:00.221Z,6.30
2018-01-30T06:42:26.796Z,6.20
2018-01-30T06:44:53.730Z,6.30
2018-01-30T06:47:20.245Z,6.30
2018-01-30T06:49:46.800Z,6.30
2018-01-30T06:52:13.365Z,6.30
2018-01-30T06:54:39.928Z,6.20
2018-01-30T06:57:13.404Z,6.20
2018-01-30T06:59:39.959Z,6.20
2018-01-30T07:02:06.489Z,6.10
2018-01-30T07:04:33.112Z,6.10
2018-01-30T07:06:59.685Z,6.10
2018-01-30T07:09:26.216Z,6.00
2018-01-30T07:11:52.785Z,6.00
2018-01-30T07:14:19.356Z,6.00
2018-01-30T07:16:45.902Z,6.00
2018-01-30T07:19:12.503Z,6.00
2018-01-30T07:21:39.069Z,6.00
2018-01-30T07:24:05.606Z,6.10
2018-01-30T07:26:32.186Z,6.20
2018-01-30T07:28:58.756Z,6.20
2018-01-30T07:31:25.311Z,6.20
2018-01-30T07:33:52.253Z,6.40
2018-01-30T07:36:18.821Z,6.40
2018-01-30T07:38:45.734Z,6.60
2018-01-30T07:41:12.306Z,6.60
2018-01-30T07:43:38.893Z,6.70
2018-01-30T07:46:05.433Z,6.60
2018-01-30T07:48:31.992Z,6.60
2018-01-30T07:50:58.561Z,6.60
2018-01-30T07:53:25.123Z,6.60
2018-01-30T07:55:51.725Z,6.60
2018-01-30T07:58:18.356Z,6.90
2018-01-30T08:00:45.336Z,7.30
2018-01-30T08:03:11.901Z,7.30
2018-01-30T08:05:38.477Z,7.50
2018-01-30T08:08:05.041Z,7.70
2018-01-30T08:10:31.609Z,7.70
2018-01-30T08:12:58.561Z,7.50
2018-01-30T08:15:25.464Z,7.40
2018-01-30T08:17:52.092Z,7.40
2018-01-30T08:20:18.658Z,7.50
2018-01-30T08:22:45.233Z,7.60
2018-01-30T08:25:12.197Z,7.80
2018-01-30T08:27:38.765Z,7.70
2018-01-30T08:30:05.686Z,7.90
2018-01-30T08:32:32.244Z,7.90
2018-01-30T08:34:58.825Z,8.00
2018-01-30T08:37:25.365Z,8.00
2018-01-30T08:39:52.297Z,8.00
2018-01-30T08:42:18.961Z,8.00
2018-01-30T08:44:45.901Z,7.60
2018-01-30T08:47:12.476Z,7.60
2018-01-30T08:49:39.478Z,7.10
2018-01-30T08:52:06.010Z,7.10
2018-01-30T08:54:32.582Z,7.00
2018-01-30T08:56:59.161Z,6.80
2018-01-30T08:59:26.068Z,6.70
2018-01-30T09:01:52.631Z,6.70
2018-01-30T09:04:19.204Z,6.60
2018-01-30T09:06:45.737Z,6.60
2018-01-30T09:09:12.313Z,6.50
2018-01-30T09:11:39.258Z,6.40
2018-01-30T09:14:05.793Z,6.40
2018-01-30T09:16:32.400Z,6.40
2018-01-30T09:18:59.005Z,6.50
2018-01-30T09:21:25.553Z,6.50
2018-01-30T09:23:52.156Z,6.50
2018-01-30T09:26:18.729Z,6.60
2018-01-30T09:28:45.293Z,6.70
2018-01-30T09:31:12.250Z,6.70
2018-01-30T09:33:38.817Z,6.80
2018-01-30T09:36:05.752Z,6.90
2018-01-30T09:38:32.321Z,6.90
2018-01-30T09:40:59.312Z,7.00
2018-01-30T09:43:25.884Z,7.00
2018-01-30T09:45:52.444Z,6.90
2018-01-30T09:48:19.026Z,7.00
2018-01-30T09:50:45.564Z,6.90
2018-01-30T09:53:12.509Z,7.00
2018-01-30T09:55:39.445Z,7.10
2018-01-30T09:58:05.981Z,7.10
2018-01-30T10:00:32.555Z,7.10
2018-01-30T10:02:59.507Z,7.20
2018-01-30T10:05:26.077Z,7.20
2018-01-30T10:07:53.030Z,7.30
2018-01-30T10:10:20.002Z,7.30
2018-01-30T10:12:46.544Z,7.30
2018-01-30T10:15:20.423Z,7.30
2018-01-30T10:17:46.997Z,7.40
2018-01-30T10:20:13.950Z,7.50
2018-01-30T10:22:40.893Z,7.50
2018-01-30T10:25:07.464Z,7.50
2018-01-30T10:27:33.997Z,7.60
2018-01-30T10:30:00.937Z,7.80
2018-01-30T10:32:27.563Z,7.80
2018-01-30T10:34:54.132Z,7.70
2018-01-30T10:37:20.706Z,7.70
2018-01-30T10:39:47.689Z,7.70
2018-01-30T10:42:14.292Z,7.70
2018-01-30T10:44:41.249Z,7.60
2018-01-30T10:47:07.808Z,7.60
2018-01-30T10:49:34.905Z,7.70
2018-01-30T10:52:01.477Z,7.70
2018-01-30T10:54:28.214Z,7.60
2018-01-30T10:56:54.756Z,7.70
2018-01-30T10:59:21.329Z,7.60
2018-01-30T11:01:48.021Z,7.70
2018-01-30T11:04:15.030Z,7.60
2018-01-30T11:06:41.604Z,7.70
2018-01-30T11:09:08.282Z,7.50
2018-01-30T11:11:35.193Z,7.50
2018-01-30T11:14:01.761Z,7.50
2018-01-30T11:16:28.712Z,7.30
2018-01-30T11:18:55.341Z,7.40
2018-01-30T11:21:21.929Z,7.40
2018-01-30T11:23:48.869Z,7.50
2018-01-30T11:26:15.729Z,7.50
2018-01-30T11:28:42.309Z,7.50
2018-01-30T11:31:08.956Z,7.50
2018-01-30T11:33:35.516Z,7.60
2018-01-30T11:36:02.157Z,7.60
2018-01-30T11:38:28.786Z,7.60
2018-01-30T11:40:55.729Z,7.50
2018-01-30T11:43:22.715Z,7.40
2018-01-30T11:45:49.387Z,7.40
2018-01-30T11:48:15.996Z,7.40
2018-01-30T11:50:42.925Z,7.30
2018-01-30T11:53:09.574Z,7.30
2018-01-30T11:55:36.109Z,7.20
2018-01-30T11:58:02.677Z,7.20
2018-01-30T12:00:29.313Z,7.20
2018-01-30T12:02:55.880Z,7.10
2018-01-30T12:05:22.453Z,7.00
2018-01-30T12:07:49.015Z,7.00
2018-01-30T12:10:15.560Z,7.00
2018-01-30T12:12:42.124Z,6.90
2018-01-30T12:15:08.689Z,6.90
2018-01-30T12:17:35.225Z,6.80
2018-01-30T12:20:01.829Z,6.70
2018-01-30T12:22:28.784Z,6.60
2018-01-30T12:24:55.720Z,6.60
2018-01-30T12:27:22.300Z,6.60
2018-01-30T12:29:48.894Z,6.60
2018-01-30T12:32:15.429Z,6.60
2018-01-30T12:34:42.000Z,6.70
2018-01-30T12:37:08.569Z,6.70
2018-01-30T12:39:35.521Z,6.80
2018-01-30T12:42:02.109Z,6.80
2018-01-30T12:44:28.664Z,6.80
2018-01-30T12:46:55.201Z,6.90
2018-01-30T12:49:21.773Z,6.90
2018-01-30T12:51:48.340Z,6.80
2018-01-30T12:54:14.873Z,6.70
2018-01-30T12:56:41.440Z,6.90
2018-01-30T12:59:08.025Z,7.00
2018-01-30T13:01:34.573Z,7.00
2018-01-30T13:04:01.184Z,7.00
2018-01-30T13:06:27.770Z,7.10
2018-01-30T13:08:54.309Z,7.30
2018-01-30T13:11:20.886Z,7.30
2018-01-30T13:13:47.458Z,7.30
2018-01-30T13:16:14.007Z,7.30
2018-01-30T13:18:40.590Z,7.20
2018-01-30T13:21:07.568Z,7.30
2018-01-30T13:23:34.134Z,7.30
2018-01-30T13:26:00.709Z,7.40
2018-01-30T13:28:27.381Z,7.40
2018-01-30T13:30:54.290Z,7.30
2018-01-30T13:33:20.945Z,7.30
2018-01-30T13:35:47.517Z,7.30
2018-01-30T13:38:14.069Z,7.40
2018-01-30T13:40:40.644Z,7.40
2018-01-30T13:43:07.592Z,7.50
2018-01-30T13:45:34.500Z,7.50
2018-01-30T13:48:01.061Z,7.50
2018-01-30T13:50:27.633Z,7.40
2018-01-30T13:52:54.569Z,7.30
2018-01-30T13:55:21.142Z,7.30
2018-01-30T13:57:48.085Z,7.40
2018-01-30T14:00:14.633Z,7.40
2018-01-30T14:02:41.297Z,7.50
2018-01-30T14:05:07.860Z,7.50
2018-01-30T14:07:34.496Z,7.30
2018-01-30T14:10:01.072Z,7.20
2018-01-30T14:12:27.654Z,7.30
2018-01-30T14:14:54.288Z,7.30
2018-01-30T14:17:20.896Z,7.20
2018-01-30T14:19:47.880Z,7.30
2018-01-30T14:22:14.421Z,7.30
2018-01-30T14:24:40.993Z,7.30
2018-01-30T14:27:07.565Z,7.30
2018-01-30T14:29:34.106Z,7.20
2018-01-30T14:32:00.762Z,7.00
2018-01-30T14:34:27.301Z,7.00
2018-01-30T14:36:53.852Z,7.00
2018-01-30T14:39:20.420Z,7.00
2018-01-30T14:41:47.356Z,7.10
2018-01-30T14:44:13.898Z,7.10
2018-01-30T14:46:40.876Z,6.90
2018-01-30T14:49:07.457Z,6.90
2018-01-30T14:51:34.012Z,6.90
2018-01-30T14:54:00.585Z,6.80
2018-01-30T14:56:27.149Z,6.80
2018-01-30T14:58:53.692Z,6.80
2018-01-30T15:01:20.275Z,6.80
2018-01-30T15:03:47.218Z,6.80
2018-01-30T15:06:13.745Z,6.70
2018-01-30T15:08:40.304Z,6.80
2018-01-30T15:11:06.868Z,6.80
2018-01-30T15:13:33.836Z,6.80
2018-01-30T15:16:00.413Z,6.80
2018-01-30T15:18:26.979Z,6.70
2018-01-30T15:20:53.565Z,6.70
2018-01-30T15:23:20.501Z,6.70
2018-01-30T15:25:47.461Z,6.60
2018-01-30T15:28:14.008Z,6.60
2018-01-30T15:30:40.584Z,6.60
2018-01-30T15:33:07.537Z,6.50
2018-01-30T15:35:34.441Z,6.50
2018-01-30T15:38:01.019Z,6.60
2018-01-30T15:40:27.596Z,6.50
2018-01-30T15:42:54.141Z,6.50
2018-01-30T15:45:20.713Z,6.50
2018-01-30T15:47:47.301Z,6.50
2018-01-30T15:50:13.861Z,6.40
2018-01-30T15:52:40.430Z,6.40
2018-01-30T15:55:06.993Z,6.40
2018-01-30T15:57:33.573Z,6.40
2018-01-30T16:00:00.137Z,6.30
2018-01-30T16:02:26.710Z,6.30
2018-01-30T16:04:53.612Z,6.40
2018-01-30T16:07:20.189Z,6.40
2018-01-30T16:09:46.760Z,6.30
2018-01-30T16:12:13.312Z,6.30
2018-01-30T16:14:39.889Z,6.30
2018-01-30T16:17:06.477Z,6.30
2018-01-30T16:19:33.076Z,6.20
2018-01-30T16:21:59.665Z,6.30
2018-01-30T16:24:26.286Z,6.30
2018-01-30T16:26:52.833Z,6.30
2018-01-30T16:29:19.447Z,6.20
2018-01-30T16:31:46.393Z,6.30
2018-01-30T16:34:13.346Z,6.30
2018-01-30T16:36:39.913Z,6.30
2018-01-30T16:39:06.866Z,6.20
2018-01-30T16:41:33.776Z,6.20
2018-01-30T16:44:00.334Z,6.20
2018-01-30T16:46:26.909Z,6.20
2018-01-30T16:48:53.870Z,6.20
2018-01-30T16:51:20.813Z,6.20
2018-01-30T16:53:47.412Z,6.20
2018-01-30T16:59:08.224Z,6.10
2018-01-30T17:01:35.169Z,6.00
2018-01-30T17:04:02.154Z,6.00
2018-01-30T17:06:28.698Z,6.00
2018-01-30T17:08:55.276Z,6.00
2018-01-30T17:11:21.849Z,6.10
2018-01-30T17:13:48.401Z,6.20
2018-01-30T17:16:14.969Z,6.20
2018-01-30T17:18:41.905Z,6.20
2018-01-30T17:21:08.483Z,6.20
2018-01-30T17:23:35.069Z,6.20
2018-01-30T17:26:01.636Z,6.10
2018-01-30T17:28:28.181Z,6.10
2018-01-30T17:30:54.762Z,6.00
2018-01-30T17:33:21.713Z,5.90
2018-01-30T17:35:48.630Z,5.80
2018-01-30T17:38:15.205Z,5.80
2018-01-30T17:40:41.773Z,5.80
2018-01-30T17:43:08.724Z,5.80
2018-01-30T17:45:35.681Z,5.70
2018-01-30T17:48:02.681Z,5.70
2018-01-30T17:50:29.225Z,5.70
2018-01-30T17:52:55.809Z,5.60
2018-01-30T17:55:22.401Z,5.60
2018-01-30T17:57:48.941Z,5.50
2018-01-30T18:00:15.888Z,5.40
2018-01-30T18:02:42.828Z,5.40
2018-01-30T18:05:09.397Z,5.40
2018-01-30T18:07:36.426Z,5.40
2018-01-30T18:10:03.068Z,5.40
2018-01-30T18:12:29.620Z,5.30
2018-01-30T18:14:56.238Z,5.30
2018-01-30T18:17:22.801Z,5.30
2018-01-30T18:19:49.388Z,5.30
2018-01-30T18:22:15.961Z,5.30
2018-01-30T18:24:42.598Z,5.20
2018-01-30T18:27:09.136Z,5.10
2018-01-30T18:29:35.725Z,5.10
2018-01-30T18:32:02.338Z,5.10
2018-01-30T18:34:29.241Z,5.00
2018-01-30T18:36:55.816Z,5.00
2018-01-30T18:39:29.424Z,5.10
2018-01-30T18:41:56.017Z,5.10
2018-01-30T18:44:22.648Z,5.20
2018-01-30T18:46:49.185Z,5.20
2018-01-30T18:49:16.133Z,5.10
2018-01-30T18:51:42.717Z,5.10
2018-01-30T18:54:09.261Z,5.10
2018-01-30T18:59:08.948Z,5.20
2018-01-30T19:01:35.533Z,5.20
2018-01-30T19:04:02.469Z,5.20
2018-01-30T19:06:29.059Z,5.20
2018-01-30T19:08:55.633Z,5.20
2018-01-30T19:11:22.194Z,5.20
2018-01-30T19:13:49.364Z,5.20
2018-01-30T19:16:15.950Z,5.20
2018-01-30T19:18:42.914Z,5.10
2018-01-30T19:21:09.493Z,5.10
2018-01-30T19:23:36.141Z,5.10
2018-01-30T19:26:03.619Z,5.10
2018-01-30T19:28:30.155Z,5.10
2018-01-30T19:30:56.777Z,5.00
2018-01-30T19:33:23.339Z,5.00
2018-01-30T19:35:49.910Z,5.00
2018-01-30T19:38:16.497Z,5.00
2018-01-30T19:40:43.446Z,4.90
2018-01-30T19:43:09.989Z,4.90
2018-01-30T19:45:36.577Z,4.90
2018-01-30T19:48:03.232Z,4.90
2018-01-30T19:50:29.814Z,5.00
2018-01-30T19:52:56.397Z,5.00
2018-01-30T19:55:23.344Z,5.00
2018-01-30T19:57:49.925Z,5.00
2018-01-30T20:00:16.496Z,5.00
2018-01-30T20:02:43.185Z,5.00
2018-01-30T20:05:09.742Z,5.00
2018-01-30T20:07:37.509Z,5.10
2018-01-30T20:10:05.057Z,5.10
2018-01-30T20:12:31.605Z,5.20
2018-01-30T20:14:58.185Z,5.10
2018-01-30T20:17:32.024Z,5.10
2018-01-30T20:19:58.633Z,5.10
2018-01-30T20:22:25.266Z,5.10
2018-01-30T20:24:51.929Z,5.10
2018-01-30T20:27:18.505Z,5.10
2018-01-30T20:29:45.885Z,5.20
2018-01-30T20:32:12.417Z,5.20
2018-01-30T20:34:39.374Z,5.10
2018-01-30T20:37:06.152Z,5.10
2018-01-30T20:39:32.693Z,5.10
2018-01-30T20:41:59.269Z,5.10
2018-01-30T20:44:25.968Z,5.00
2018-01-30T20:46:52.514Z,5.10
2018-01-30T20:49:19.092Z,5.10
2018-01-30T20:51:46.335Z,5.20
2018-01-30T20:54:14.270Z,5.20
2018-01-30T20:56:40.845Z,5.20
2018-01-30T20:59:07.407Z,5.20
2018-01-30T21:01:34.338Z,5.20
2018-01-30T21:04:00.920Z,5.20
2018-01-30T21:06:27.574Z,5.20
2018-01-30T21:08:54.133Z,5.30
2018-01-30T21:11:20.713Z,5.30
2018-01-30T21:13:47.369Z,5.30
2018-01-30T21:16:13.962Z,5.30
2018-01-30T21:18:40.527Z,5.30
2018-01-30T21:21:07.162Z,5.30
2018-01-30T21:23:33.721Z,5.40
2018-01-30T21:26:00.341Z,5.30
2018-01-30T21:28:27.367Z,5.30
2018-01-30T21:30:53.912Z,5.30
2018-01-30T21:33:20.489Z,5.30
2018-01-30T21:35:47.492Z,5.30
2018-01-30T21:38:14.016Z,5.30
2018-01-30T21:40:40.618Z,5.20
2018-01-30T21:43:07.197Z,5.20
2018-01-30T21:45:34.132Z,5.20
2018-01-30T21:48:00.722Z,5.20
2018-01-30T21:50:27.289Z,5.20
2018-01-30T21:52:53.849Z,5.20
2018-01-30T21:55:20.416Z,5.20
2018-01-30T21:57:46.998Z,5.20
2018-01-30T22:00:13.923Z,5.10
2018-01-30T22:02:40.572Z,5.10
2018-01-30T22:05:07.145Z,4.90
2018-01-30T22:07:34.055Z,4.90
2018-01-30T22:10:00.621Z,4.90
2018-01-30T22:12:27.202Z,4.90
2018-01-30T22:14:54.152Z,4.90
2018-01-30T22:17:21.097Z,4.90
2018-01-30T22:19:48.049Z,4.90
2018-01-30T22:22:14.997Z,5.00
2018-01-30T22:24:41.560Z,5.00
2018-01-30T22:27:08.141Z,4.90
2018-01-30T22:29:34.681Z,4.80
2018-01-30T22:32:01.249Z,4.80
2018-01-30T22:34:27.824Z,4.90
2018-01-30T22:36:54.662Z,5.00
2018-01-30T22:39:21.228Z,5.00
2018-01-30T22:41:47.805Z,4.90
2018-01-30T22:44:14.729Z,4.90
2018-01-30T22:46:41.300Z,4.90
